createdAt,value
2023-04-15T00:01:50.200Z,74.06
2023-04-15T00:04:16.788Z,74.76
2023-04-15T00:06:43.259Z,74.75
2023-04-15T00:09:09.707Z,74.65
2023-04-15T00:11:36.131Z,74.76
2023-04-15T00:14:02.564Z,75.67
2023-04-15T00:16:29.160Z,75.46
2023-04-15T00:18:55.659Z,74.97
2023-04-15T00:21:22.164Z,74.98
2023-04-15T00:23:52.574Z,74.49
2023-04-15T00:26:19.774Z,73.98
2023-04-15T00:28:47.027Z,74.80
2023-04-15T00:31:13.670Z,75.33
2023-04-15T00:33:40.156Z,75.11
2023-04-15T00:36:07.294Z,74.59
2023-04-15T00:38:33.864Z,74.22
2023-04-15T00:41:00.377Z,74.95
2023-04-15T00:43:27.728Z,74.65
2023-04-15T00:45:57.376Z,74.91
2023-04-15T00:48:24.502Z,74.67
2023-04-15T00:50:51.019Z,75.34
2023-04-15T00:53:17.512Z,76.06
2023-04-15T00:55:43.963Z,76.68
2023-04-15T00:58:10.425Z,76.42
2023-04-15T01:00:37.465Z,76.95
2023-04-15T01:03:04.131Z,76.83
2023-04-15T01:05:31.354Z,77.58
2023-04-15T01:07:58.178Z,77.45
2023-04-15T01:10:24.644Z,77.92
2023-04-15T01:12:51.347Z,78.20
2023-04-15T01:15:17.927Z,78.53
2023-04-15T01:17:44.830Z,78.31
2023-04-15T01:20:12.190Z,77.92
2023-04-15T01:22:39.395Z,77.75
2023-04-15T01:25:09.979Z,77.60
2023-04-15T01:27:39.885Z,77.69
2023-04-15T01:30:08.008Z,77.50
2023-04-15T01:32:34.642Z,77.46
2023-04-15T01:35:01.351Z,77.73
2023-04-15T01:37:27.822Z,77.95
2023-04-15T01:39:54.390Z,77.58
2023-04-15T01:42:23.910Z,78.33
2023-04-15T01:44:50.381Z,78.44
2023-04-15T01:47:16.810Z,78.70
2023-04-15T01:49:43.189Z,78.33
2023-04-15T01:52:09.721Z,78.81
2023-04-15T01:54:36.147Z,78.95
2023-04-15T01:57:02.992Z,78.99
2023-04-15T01:59:31.245Z,79.54
2023-04-15T02:01:57.912Z,80.32
2023-04-15T02:04:24.390Z,80.25
2023-04-15T02:06:50.883Z,80.55
2023-04-15T02:09:17.312Z,80.63
2023-04-15T02:11:43.808Z,80.12
2023-04-15T02:14:10.360Z,81.05
2023-04-15T02:16:37.013Z,80.89
2023-04-15T02:19:03.889Z,81.39
2023-04-15T02:21:30.657Z,81.40
2023-04-15T02:23:57.280Z,81.53
2023-04-15T02:26:25.278Z,81.72
2023-04-15T02:28:51.736Z,82.42
2023-04-15T02:31:18.213Z,82.08
2023-04-15T02:33:45.202Z,82.32
2023-04-15T02:36:12.406Z,82.44
2023-04-15T02:38:40.750Z,82.72
2023-04-15T02:41:07.244Z,83.19
2023-04-15T02:43:33.697Z,83.53
2023-04-15T02:46:00.293Z,84.26
2023-04-15T02:48:27.000Z,84.06
2023-04-15T02:50:53.520Z,84.45
2023-04-15T02:53:20.712Z,83.99
2023-04-15T02:55:47.223Z,84.29
2023-04-15T02:58:13.670Z,84.53
2023-04-15T03:00:40.206Z,84.29
2023-04-15T03:03:07.466Z,85.16
2023-04-15T03:05:34.231Z,85.04
2023-04-15T03:08:01.417Z,85.30
2023-04-15T03:10:28.013Z,85.59
2023-04-15T03:12:54.469Z,85.53
2023-04-15T03:15:21.218Z,85.50
2023-04-15T03:17:49.585Z,85.17
2023-04-15T03:20:17.094Z,85.47
2023-04-15T03:22:43.735Z,86.01
2023-04-15T03:25:10.191Z,85.89
2023-04-15T03:27:38.018Z,86.66
2023-04-15T03:30:04.752Z,86.74
2023-04-15T03:32:31.657Z,86.81
2023-04-15T03:34:58.104Z,87.21
2023-04-15T03:37:24.551Z,88.03
2023-04-15T03:39:51.033Z,87.50
2023-04-15T03:42:17.457Z,87.57
2023-04-15T03:44:43.882Z,87.64
2023-04-15T03:47:10.312Z,88.19
2023-04-15T03:49:37.264Z,88.21
2023-04-15T03:52:03.813Z,88.14
2023-04-15T03:54:30.366Z,88.10
2023-04-15T03:56:56.948Z,88.49
2023-04-15T03:59:23.487Z,88.61
2023-04-15T04:01:50.017Z,88.87
2023-04-15T04:04:16.558Z,88.85
2023-04-15T04:06:43.158Z,88.53
2023-04-15T04:09:09.619Z,88.90
2023-04-15T04:11:37.579Z,88.99
2023-04-15T04:14:04.065Z,89.30
2023-04-15T04:16:30.526Z,89.28
2023-04-15T04:18:57.062Z,88.81
2023-04-15T04:21:23.606Z,89.43
2023-04-15T04:23:50.683Z,90.01
2023-04-15T04:26:17.228Z,89.96
2023-04-15T04:28:43.888Z,89.68
2023-04-15T04:31:10.421Z,89.76
2023-04-15T04:33:36.892Z,89.99
2023-04-15T04:36:03.672Z,90.22
2023-04-15T04:38:30.310Z,90.48
2023-04-15T04:40:56.833Z,90.58
2023-04-15T04:43:23.267Z,90.12
2023-04-15T04:45:49.703Z,90.51
2023-04-15T04:48:16.967Z,90.95
2023-04-15T04:50:44.548Z,91.45
2023-04-15T04:53:11.080Z,91.30
2023-04-15T04:55:37.658Z,91.23
2023-04-15T04:58:04.210Z,90.92
2023-04-15T05:00:30.750Z,91.14
2023-04-15T05:02:57.448Z,91.18
2023-04-15T05:05:24.165Z,91.60
2023-04-15T05:07:50.904Z,91.80
2023-04-15T05:10:18.206Z,91.50
2023-04-15T05:12:44.860Z,91.56
2023-04-15T05:15:11.537Z,91.58
2023-04-15T05:17:38.089Z,91.83
2023-04-15T05:20:04.912Z,92.75
2023-04-15T05:22:31.464Z,92.72
2023-04-15T05:24:57.915Z,93.13
2023-04-15T05:27:24.980Z,93.05
2023-04-15T05:29:51.639Z,93.07
2023-04-15T05:32:18.151Z,93.39
2023-04-15T05:34:44.641Z,93.25
2023-04-15T05:37:12.223Z,93.68
2023-04-15T05:39:38.789Z,93.94
2023-04-15T05:42:06.178Z,93.72
2023-04-15T05:44:33.013Z,94.28
2023-04-15T05:46:59.637Z,94.46
2023-04-15T05:49:26.114Z,95.09
2023-04-15T05:51:52.759Z,95.47
2023-04-15T05:54:20.251Z,95.33
2023-04-15T05:56:46.935Z,95.53
2023-04-15T05:59:13.408Z,95.12
2023-04-15T06:01:40.301Z,95.99
2023-04-15T06:04:06.955Z,96.08
2023-04-15T06:06:33.580Z,95.72
2023-04-15T06:09:00.710Z,96.31
2023-04-15T06:11:27.389Z,96.12
2023-04-15T06:13:53.857Z,96.56
2023-04-15T06:16:20.363Z,97.20
2023-04-15T06:18:46.744Z,97.20
2023-04-15T06:21:13.247Z,97.73
2023-04-15T06:23:41.202Z,97.79
2023-04-15T06:26:08.062Z,97.71
2023-04-15T06:28:34.695Z,97.53
2023-04-15T06:31:01.942Z,97.59
2023-04-15T06:33:28.659Z,97.55
2023-04-15T06:35:55.341Z,97.65
2023-04-15T06:38:21.860Z,97.17
2023-04-15T06:40:48.361Z,97.54
2023-04-15T06:43:15.349Z,97.07
2023-04-15T06:45:41.887Z,97.63
2023-04-15T06:48:08.442Z,97.33
2023-04-15T06:50:35.704Z,97.14
2023-04-15T06:53:02.196Z,97.06
2023-04-15T06:55:28.652Z,97.10
2023-04-15T06:57:55.399Z,96.43
2023-04-15T07:00:22.369Z,96.65
2023-04-15T07:02:49.068Z,96.31
2023-04-15T07:05:16.311Z,94.83
2023-04-15T07:07:42.825Z,94.96
2023-04-15T07:10:09.944Z,94.19
2023-04-15T07:12:36.582Z,93.62
2023-04-15T07:15:03.591Z,93.76
2023-04-15T07:17:30.083Z,93.30
2023-04-15T07:19:56.694Z,93.38
2023-04-15T07:22:23.264Z,93.20
2023-04-15T07:24:49.795Z,93.05
2023-04-15T07:27:17.540Z,93.06
2023-04-15T07:29:43.937Z,93.15
2023-04-15T07:32:10.810Z,91.52
2023-04-15T07:34:38.069Z,91.10
2023-04-15T07:37:04.657Z,89.46
2023-04-15T07:39:31.251Z,87.73
2023-04-15T07:41:59.080Z,86.83
2023-04-15T07:44:27.078Z,87.02
2023-04-15T07:46:53.883Z,84.24
2023-04-15T07:49:21.386Z,81.64
2023-04-15T07:51:48.931Z,80.59
2023-04-15T07:54:15.773Z,80.38
2023-04-15T07:56:42.228Z,80.83
2023-04-15T07:59:09.937Z,81.77
2023-04-15T08:01:36.892Z,79.93
2023-04-15T08:04:03.809Z,81.17
2023-04-15T08:06:30.954Z,79.80
2023-04-15T08:08:57.550Z,80.46
2023-04-15T08:11:24.590Z,81.07
2023-04-15T08:13:52.754Z,79.14
2023-04-15T08:16:24.486Z,80.07
2023-04-15T08:18:53.005Z,79.66
2023-04-15T08:21:20.070Z,79.19
2023-04-15T08:23:47.841Z,78.74
2023-04-15T08:26:14.387Z,76.26
2023-04-15T08:28:42.094Z,74.88
2023-04-15T08:31:09.558Z,74.81
2023-04-15T08:33:36.271Z,74.37
2023-04-15T08:36:03.344Z,74.87
2023-04-15T08:38:29.948Z,74.39
2023-04-15T08:40:59.968Z,73.75
2023-04-15T08:43:34.754Z,73.88
2023-04-15T08:46:02.313Z,76.09
2023-04-15T08:48:31.546Z,73.82
2023-04-15T08:50:59.068Z,75.31
2023-04-15T08:53:26.239Z,76.02
2023-04-15T08:55:55.644Z,75.28
2023-04-15T08:58:22.301Z,73.07
2023-04-15T09:00:48.885Z,72.97
2023-04-15T09:03:17.640Z,74.64
2023-04-15T09:05:44.404Z,74.66
2023-04-15T09:08:10.895Z,73.69
2023-04-15T09:10:37.428Z,73.17
2023-04-15T09:13:04.538Z,72.61
2023-04-15T09:15:32.942Z,74.56
2023-04-15T09:17:59.336Z,74.80
2023-04-15T09:20:25.825Z,75.82
2023-04-15T09:22:52.549Z,74.75
2023-04-15T09:25:21.952Z,72.85
2023-04-15T09:27:49.702Z,72.66
2023-04-15T09:30:16.880Z,74.57
2023-04-15T09:32:51.815Z,74.63
2023-04-15T09:35:18.971Z,73.78
2023-04-15T09:37:45.571Z,73.15
2023-04-15T09:40:12.758Z,73.77
2023-04-15T09:42:56.081Z,72.26
2023-04-15T09:45:24.535Z,72.11
2023-04-15T09:47:52.606Z,70.93
2023-04-15T09:50:20.565Z,72.21
2023-04-15T09:52:47.405Z,71.58
2023-04-15T09:55:15.951Z,71.93
2023-04-15T09:57:44.301Z,71.21
2023-04-15T10:00:11.429Z,69.90
2023-04-15T10:02:40.046Z,70.02
2023-04-15T10:05:07.637Z,70.65
2023-04-15T10:07:35.163Z,71.47
2023-04-15T10:10:03.718Z,68.34
2023-04-15T10:12:31.636Z,69.18
2023-04-15T10:15:07.828Z,68.48
2023-04-15T10:17:35.672Z,67.29
2023-04-15T10:20:04.591Z,67.74
2023-04-15T10:22:32.130Z,67.65
2023-04-15T10:25:00.810Z,68.25
2023-04-15T10:27:28.192Z,69.51
2023-04-15T10:29:54.834Z,69.91
2023-04-15T10:32:22.357Z,68.65
2023-04-15T10:34:53.164Z,66.89
2023-04-15T10:37:36.614Z,68.33
2023-04-15T10:40:27.319Z,66.41
2023-04-15T10:42:55.835Z,66.00
2023-04-15T10:45:22.654Z,67.54
2023-04-15T10:47:55.746Z,66.95
2023-04-15T10:50:22.337Z,67.71
2023-04-15T10:52:51.620Z,66.75
2023-04-15T10:55:25.797Z,65.14
2023-04-15T10:57:54.293Z,65.22
2023-04-15T11:00:25.916Z,65.65
2023-04-15T11:03:05.509Z,65.22
2023-04-15T11:05:41.473Z,65.83
2023-04-15T11:08:11.944Z,66.30
2023-04-15T11:10:38.306Z,64.61
2023-04-15T11:13:14.769Z,65.02
2023-04-15T11:15:48.880Z,65.26
2023-04-15T11:18:19.294Z,64.16
2023-04-15T11:20:48.506Z,64.70
2023-04-15T11:23:16.050Z,63.99
2023-04-15T11:25:43.825Z,61.01
2023-04-15T11:28:12.283Z,61.23
2023-04-15T11:30:39.383Z,62.45
2023-04-15T11:33:08.500Z,62.05
2023-04-15T11:35:36.016Z,61.68
2023-04-15T11:38:08.574Z,60.01
2023-04-15T11:40:35.827Z,58.73
2023-04-15T11:43:16.123Z,60.26
2023-04-15T11:45:58.541Z,61.27
2023-04-15T11:48:27.309Z,61.49
2023-04-15T11:50:58.975Z,61.14
2023-04-15T11:53:37.203Z,60.96
2023-04-15T11:56:03.921Z,61.16
2023-04-15T11:58:31.566Z,62.44
2023-04-15T12:01:00.111Z,60.91
2023-04-15T12:03:27.820Z,61.18
2023-04-15T12:06:19.479Z,62.87
2023-04-15T12:08:56.000Z,61.85
2023-04-15T12:11:31.412Z,61.01
2023-04-15T12:14:06.711Z,60.06
2023-04-15T12:16:49.052Z,60.28
2023-04-15T12:19:22.725Z,60.96
2023-04-15T12:21:49.497Z,60.19
2023-04-15T12:24:19.682Z,60.39
2023-04-15T12:26:48.571Z,60.16
2023-04-15T12:29:17.348Z,60.77
2023-04-15T12:31:57.847Z,59.55
2023-04-15T12:34:27.684Z,60.17
2023-04-15T12:36:54.900Z,59.88
2023-04-15T12:39:25.565Z,61.18
2023-04-15T12:41:52.698Z,58.88
2023-04-15T12:44:20.081Z,58.77
2023-04-15T12:46:46.885Z,58.59
2023-04-15T12:49:14.767Z,59.10
2023-04-15T12:51:41.455Z,59.20
2023-04-15T12:54:07.985Z,60.75
2023-04-15T12:56:34.477Z,61.75
2023-04-15T12:59:00.923Z,59.30
2023-04-15T13:01:27.460Z,58.95
2023-04-15T13:03:54.211Z,59.25
2023-04-15T13:06:21.510Z,60.40
2023-04-15T13:08:57.418Z,61.29
2023-04-15T13:11:25.326Z,60.67
2023-04-15T13:13:52.955Z,62.75
2023-04-15T13:16:19.608Z,63.26
2023-04-15T13:18:46.240Z,63.75
2023-04-15T13:21:13.355Z,65.21
2023-04-15T13:23:41.773Z,66.62
2023-04-15T13:26:08.389Z,66.64
2023-04-15T13:28:35.241Z,65.23
2023-04-15T13:31:01.806Z,65.92
2023-04-15T13:33:28.341Z,65.56
2023-04-15T13:35:54.809Z,66.19
2023-04-15T13:38:21.338Z,66.98
2023-04-15T13:40:47.972Z,66.04
2023-04-15T13:43:14.404Z,67.01
2023-04-15T13:45:41.190Z,66.61
2023-04-15T13:48:07.681Z,66.85
2023-04-15T13:50:34.198Z,68.08
2023-04-15T13:53:00.708Z,66.79
2023-04-15T13:55:28.685Z,67.17
2023-04-15T13:57:56.230Z,67.34
2023-04-15T14:00:22.754Z,66.59
2023-04-15T14:02:49.288Z,65.01
2023-04-15T14:05:15.957Z,64.67
2023-04-15T14:07:42.454Z,64.29
2023-04-15T14:10:09.056Z,65.09
2023-04-15T14:12:35.668Z,65.75
2023-04-15T14:15:02.386Z,66.25
2023-04-15T14:17:28.892Z,66.19
2023-04-15T14:19:55.415Z,67.20
2023-04-15T14:22:21.836Z,68.76
2023-04-15T14:24:49.190Z,69.58
2023-04-15T14:27:16.714Z,71.01
2023-04-15T14:29:43.201Z,71.79
2023-04-15T14:32:11.995Z,71.90
2023-04-15T14:34:39.702Z,72.21
2023-04-15T14:37:06.251Z,71.92
2023-04-15T14:39:32.981Z,71.55
2023-04-15T14:41:59.491Z,71.67
2023-04-15T14:44:26.009Z,71.86
2023-04-15T14:46:52.730Z,71.49
2023-04-15T14:49:19.858Z,71.40
2023-04-15T14:51:46.440Z,70.36
2023-04-15T14:54:12.867Z,69.39
2023-04-15T14:56:39.267Z,69.98
2023-04-15T14:59:06.145Z,71.48
2023-04-15T15:01:33.804Z,72.58
2023-04-15T15:04:00.691Z,72.44
2023-04-15T15:06:27.817Z,72.82
2023-04-15T15:08:54.310Z,72.38
2023-04-15T15:11:21.037Z,72.59
2023-04-15T15:13:47.556Z,72.01
2023-04-15T15:16:14.710Z,72.68
2023-04-15T15:18:41.483Z,72.95
2023-04-15T15:21:07.918Z,73.53
2023-04-15T15:23:34.362Z,73.88
2023-04-15T15:26:00.898Z,74.36
2023-04-15T15:28:27.301Z,75.26
2023-04-15T15:30:53.854Z,75.52
2023-04-15T15:33:20.914Z,75.15
2023-04-15T15:35:47.393Z,74.15
2023-04-15T15:38:13.877Z,74.67
2023-04-15T15:40:40.354Z,75.33
2023-04-15T15:43:06.759Z,75.63
2023-04-15T15:45:33.719Z,76.37
2023-04-15T15:48:01.701Z,77.46
2023-04-15T15:50:28.176Z,77.69
2023-04-15T15:52:55.226Z,78.37
2023-04-15T15:55:21.704Z,77.45
2023-04-15T15:57:48.064Z,77.47
2023-04-15T16:00:14.800Z,77.79
2023-04-15T16:05:11.869Z,77.95
2023-04-15T16:07:38.351Z,77.48
2023-04-15T16:10:05.215Z,77.89
2023-04-15T16:12:33.775Z,78.56
2023-04-15T16:15:01.380Z,79.31
2023-04-15T16:17:27.915Z,80.29
2023-04-15T16:19:57.917Z,80.06
2023-04-15T16:22:27.294Z,80.25
2023-04-15T16:24:53.843Z,80.58
2023-04-15T16:27:20.314Z,80.66
2023-04-15T16:29:46.766Z,80.07
2023-04-15T16:32:13.529Z,80.06
2023-04-15T16:34:41.268Z,80.00
2023-04-15T16:37:08.063Z,80.28
2023-04-15T16:39:34.562Z,81.36
2023-04-15T16:42:02.451Z,80.77
2023-04-15T16:44:29.233Z,81.14
2023-04-15T16:46:56.356Z,81.42
2023-04-15T16:49:22.819Z,80.85
2023-04-15T16:51:49.252Z,80.91
2023-04-15T16:54:15.824Z,81.14
2023-04-15T16:56:42.230Z,81.14
2023-04-15T16:59:08.714Z,81.53
2023-04-15T17:01:35.511Z,81.13
2023-04-15T17:04:02.236Z,81.33
2023-04-15T17:06:28.812Z,81.31
2023-04-15T17:08:55.329Z,81.85
2023-04-15T17:11:21.780Z,81.93
2023-04-15T17:13:49.048Z,81.46
2023-04-15T17:16:15.586Z,82.08
2023-04-15T17:18:42.130Z,82.08
2023-04-15T17:21:08.586Z,82.67
2023-04-15T17:23:35.047Z,82.32
2023-04-15T17:26:01.779Z,82.23
2023-04-15T17:28:28.264Z,82.79
2023-04-15T17:30:54.802Z,82.72
2023-04-15T17:33:59.655Z,83.22
2023-04-15T17:36:08.836Z,83.47
2023-04-15T17:38:35.372Z,83.85
2023-04-15T17:41:01.881Z,83.82
2023-04-15T17:43:28.355Z,83.61
2023-04-15T17:45:55.572Z,83.74
2023-04-15T17:48:22.639Z,83.58
2023-04-15T17:50:51.303Z,83.65
2023-04-15T17:53:18.461Z,83.70
2023-04-15T17:55:45.074Z,83.43
2023-04-15T17:58:11.588Z,83.68
2023-04-15T18:00:38.041Z,83.72
2023-04-15T18:03:04.726Z,84.05
2023-04-15T18:05:31.247Z,83.99
2023-04-15T18:07:57.816Z,84.41
2023-04-15T18:10:24.351Z,84.60
2023-04-15T18:12:50.904Z,84.72
2023-04-15T18:15:17.431Z,84.52
2023-04-15T18:17:44.098Z,84.53
2023-04-15T18:20:11.216Z,83.85
2023-04-15T18:22:37.852Z,83.38
2023-04-15T18:25:05.001Z,83.86
2023-04-15T18:27:32.176Z,83.59
2023-04-15T18:29:58.681Z,83.99
2023-04-15T18:32:25.418Z,83.89
2023-04-15T18:34:51.884Z,84.03
2023-04-15T18:37:18.481Z,84.48
2023-04-15T18:39:45.030Z,85.01
2023-04-15T18:42:11.422Z,85.95
2023-04-15T18:44:37.906Z,86.34
2023-04-15T18:47:04.491Z,86.54
2023-04-15T18:49:33.160Z,87.73
2023-04-15T18:51:59.624Z,88.36
2023-04-15T18:54:26.153Z,88.87
2023-04-15T18:56:52.623Z,89.22
2023-04-15T18:59:19.110Z,90.06
2023-04-15T19:01:55.255Z,90.27
2023-04-15T19:04:21.801Z,90.66
2023-04-15T19:06:48.724Z,90.92
2023-04-15T19:09:16.159Z,90.89
2023-04-15T19:11:43.762Z,90.67
2023-04-15T19:14:10.820Z,90.67
2023-04-15T19:16:37.842Z,91.01
2023-04-15T19:19:05.747Z,91.17
2023-04-15T19:21:32.681Z,91.32
2023-04-15T19:24:00.505Z,91.25
2023-04-15T19:26:27.621Z,91.77
2023-04-15T19:28:54.899Z,91.92
2023-04-15T19:31:21.353Z,92.01
2023-04-15T19:33:47.807Z,92.41
2023-04-15T19:36:14.397Z,93.19
2023-04-15T19:38:40.968Z,93.96
2023-04-15T19:41:09.679Z,94.06
2023-04-15T19:43:36.655Z,93.66
2023-04-15T19:46:04.087Z,93.72
2023-04-15T19:48:30.892Z,93.80
2023-04-15T19:50:57.431Z,93.61
2023-04-15T19:53:25.564Z,93.88
2023-04-15T19:55:52.124Z,94.19
2023-04-15T19:58:18.644Z,93.73
2023-04-15T20:00:45.142Z,93.86
2023-04-15T20:03:11.716Z,93.94
2023-04-15T20:05:38.242Z,93.61
2023-04-15T20:08:04.929Z,93.60
2023-04-15T20:10:31.851Z,93.08
2023-04-15T20:12:58.427Z,93.41
2023-04-15T20:15:24.893Z,93.43
2023-04-15T20:17:51.621Z,93.58
2023-04-15T20:20:18.605Z,93.96
2023-04-15T20:22:45.342Z,93.70
2023-04-15T20:25:11.822Z,93.65
2023-04-15T20:27:38.308Z,93.63
2023-04-15T20:30:05.359Z,93.89
2023-04-15T20:32:35.425Z,93.79
2023-04-15T20:35:03.635Z,93.84
2023-04-15T20:37:30.971Z,94.14
2023-04-15T20:39:57.485Z,94.31
2023-04-15T20:42:23.954Z,94.31
2023-04-15T20:44:50.520Z,94.72
2023-04-15T20:47:17.241Z,94.51
2023-04-15T20:49:43.715Z,94.62
2023-04-15T20:52:10.169Z,94.81
2023-04-15T20:54:36.732Z,94.89
2023-04-15T20:57:03.286Z,95.13
2023-04-15T20:59:30.041Z,95.93
2023-04-15T21:01:59.490Z,95.58
2023-04-15T21:04:26.107Z,95.81
2023-04-15T21:06:52.572Z,95.91
2023-04-15T21:09:19.088Z,95.97
2023-04-15T21:12:00.432Z,96.33
2023-04-15T21:14:28.335Z,96.68
2023-04-15T21:16:55.017Z,96.76
2023-04-15T21:19:21.692Z,96.74
2023-04-15T21:21:48.113Z,97.21
2023-04-15T21:24:14.596Z,97.70
2023-04-15T21:26:41.098Z,98.24
2023-04-15T21:29:10.400Z,98.35
2023-04-15T21:31:37.993Z,98.69
2023-04-15T21:34:05.106Z,98.86
2023-04-15T21:36:31.820Z,99.40
2023-04-15T21:38:58.338Z,99.86
2023-04-15T21:41:24.861Z,100.00
2023-04-15T21:43:51.419Z,100.00
2023-04-15T21:46:23.320Z,100.00
2023-04-15T21:48:52.379Z,100.00
2023-04-15T21:51:18.956Z,100.00
2023-04-15T21:53:45.653Z,100.00
2023-04-15T21:56:12.149Z,100.00
2023-04-15T21:58:38.593Z,100.00
2023-04-15T22:01:05.658Z,100.00
2023-04-15T22:03:34.082Z,100.00
2023-04-15T22:06:02.337Z,100.00
2023-04-15T22:08:28.872Z,100.00
2023-04-15T22:10:55.464Z,100.00
2023-04-15T22:13:21.966Z,100.00
2023-04-15T22:15:48.470Z,100.00
2023-04-15T22:18:14.982Z,100.00
2023-04-15T22:20:41.543Z,100.00
2023-04-15T22:23:08.949Z,100.00
2023-04-15T22:25:38.269Z,100.00
2023-04-15T22:28:09.388Z,100.00
2023-04-15T22:30:40.143Z,100.00
2023-04-15T22:33:07.784Z,100.00
2023-04-15T22:35:36.146Z,100.00
2023-04-15T22:38:04.080Z,100.00
2023-04-15T22:40:30.675Z,100.00
2023-04-15T22:42:57.242Z,100.00
2023-04-15T22:45:23.732Z,100.00
2023-04-15T22:47:50.382Z,100.00
2023-04-15T22:50:16.844Z,100.00
2023-04-15T22:52:46.151Z,100.00
2023-04-15T22:55:13.102Z,100.00
2023-04-15T22:57:39.783Z,100.00
2023-04-15T23:00:07.376Z,100.00
2023-04-15T23:02:34.747Z,100.00
2023-04-15T23:05:06.281Z,100.00
2023-04-15T23:07:38.752Z,100.00
2023-04-15T23:10:05.693Z,100.00
2023-04-15T23:12:32.251Z,100.00
2023-04-15T23:14:58.752Z,100.00
2023-04-15T23:17:25.316Z,100.00
2023-04-15T23:19:51.889Z,100.00
2023-04-15T23:22:18.462Z,100.00
2023-04-15T23:24:44.980Z,100.00
2023-04-15T23:27:11.417Z,100.00
2023-04-15T23:29:37.942Z,100.00
2023-04-15T23:32:04.895Z,100.00
2023-04-15T23:34:31.651Z,100.00
2023-04-15T23:36:58.082Z,100.00
2023-04-15T23:39:24.550Z,100.00
2023-04-15T23:41:51.002Z,100.00
2023-04-15T23:44:17.482Z,100.00
2023-04-15T23:46:43.920Z,100.00
2023-04-15T23:49:10.777Z,100.00
2023-04-15T23:51:37.408Z,100.00
2023-04-15T23:54:03.926Z,100.00
2023-04-15T23:56:30.420Z,100.00
2023-04-15T23:58:56.898Z,100.00
